sensor_id;sensor_type;location;lat;lon;timestamp;pressure;altitude;pressure_sealevel;temperature
32039;BMP280;18549;42.286;22.688;2023-05-07T00:00:20;95823.69;;;17.36
32039;BMP280;18549;42.286;22.688;2023-05-07T00:02:47;95826.97;;;17.37
32039;BMP280;18549;42.286;22.688;2023-05-07T00:05:14;95824.22;;;17.30
32039;BMP280;18549;42.286;22.688;2023-05-07T00:07:41;95828.56;;;17.28
32039;BMP280;18549;42.286;22.688;2023-05-07T00:10:09;95826.06;;;17.28
32039;BMP280;18549;42.286;22.688;2023-05-07T00:12:37;95828.69;;;17.27
32039;BMP280;18549;42.286;22.688;2023-05-07T00:15:07;95827.91;;;17.26
32039;BMP280;18549;42.286;22.688;2023-05-07T00:17:35;95824.47;;;17.27
32039;BMP280;18549;42.286;22.688;2023-05-07T00:20:03;95824.34;;;17.29
32039;BMP280;18549;42.286;22.688;2023-05-07T00:22:30;95827.91;;;17.26
32039;BMP280;18549;42.286;22.688;2023-05-07T00:24:58;95829.75;;;17.24
32039;BMP280;18549;42.286;22.688;2023-05-07T00:27:26;95844.28;;;17.21
32039;BMP280;18549;42.286;22.688;2023-05-07T00:29:54;95836.19;;;17.17
32039;BMP280;18549;42.286;22.688;2023-05-07T00:32:21;95838.03;;;17.16
32039;BMP280;18549;42.286;22.688;2023-05-07T00:34:49;95836.28;;;17.07
32039;BMP280;18549;42.286;22.688;2023-05-07T00:37:16;95834.16;;;17.02
32039;BMP280;18549;42.286;22.688;2023-05-07T00:39:44;95837.88;;;16.89
32039;BMP280;18549;42.286;22.688;2023-05-07T00:42:11;95840.19;;;16.81
32039;BMP280;18549;42.286;22.688;2023-05-07T00:44:39;95844.16;;;16.83
32039;BMP280;18549;42.286;22.688;2023-05-07T00:47:07;95842.19;;;16.87
32039;BMP280;18549;42.286;22.688;2023-05-07T00:49:38;95836.81;;;16.91
32039;BMP280;18549;42.286;22.688;2023-05-07T00:52:07;95838.50;;;16.91
32039;BMP280;18549;42.286;22.688;2023-05-07T00:54:36;95846.69;;;16.93
32039;BMP280;18549;42.286;22.688;2023-05-07T00:57:04;95838.94;;;16.96
32039;BMP280;18549;42.286;22.688;2023-05-07T00:59:32;95838.78;;;16.97
32039;BMP280;18549;42.286;22.688;2023-05-07T01:02:01;95839.56;;;16.98
32039;BMP280;18549;42.286;22.688;2023-05-07T01:04:29;95839.56;;;16.98
32039;BMP280;18549;42.286;22.688;2023-05-07T01:06:56;95837.31;;;16.95
32039;BMP280;18549;42.286;22.688;2023-05-07T01:09:28;95835.59;;;16.95
32039;BMP280;18549;42.286;22.688;2023-05-07T01:11:57;95840.09;;;16.92
32039;BMP280;18549;42.286;22.688;2023-05-07T01:14:25;95844.44;;;16.90
32039;BMP280;18549;42.286;22.688;2023-05-07T01:16:52;95836.25;;;16.88
32039;BMP280;18549;42.286;22.688;2023-05-07T01:19:19;95837.28;;;16.76
32039;BMP280;18549;42.286;22.688;2023-05-07T01:21:48;95841.50;;;16.66
32039;BMP280;18549;42.286;22.688;2023-05-07T01:24:18;95838.56;;;16.61
32039;BMP280;18549;42.286;22.688;2023-05-07T01:26:45;95841.19;;;16.60
32039;BMP280;18549;42.286;22.688;2023-05-07T01:29:13;95837.25;;;16.57
32039;BMP280;18549;42.286;22.688;2023-05-07T01:31:43;95836.47;;;16.57
32039;BMP280;18549;42.286;22.688;2023-05-07T01:34:14;95847.25;;;16.57
32039;BMP280;18549;42.286;22.688;2023-05-07T01:36:43;95842.91;;;16.59
32039;BMP280;18549;42.286;22.688;2023-05-07T01:39:11;95846.22;;;16.60
32039;BMP280;18549;42.286;22.688;2023-05-07T01:41:40;95850.44;;;16.59
32039;BMP280;18549;42.286;22.688;2023-05-07T01:44:07;95843.19;;;16.36
32039;BMP280;18549;42.286;22.688;2023-05-07T01:46:35;95843.84;;;16.29
32039;BMP280;18549;42.286;22.688;2023-05-07T01:49:02;95840.66;;;16.27
32039;BMP280;18549;42.286;22.688;2023-05-07T01:51:30;95845.66;;;16.27
32039;BMP280;18549;42.286;22.688;2023-05-07T01:53:58;95849.09;;;16.26
32039;BMP280;18549;42.286;22.688;2023-05-07T01:56:25;95843.97;;;16.27
32039;BMP280;18549;42.286;22.688;2023-05-07T01:58:54;95842.28;;;16.28
32039;BMP280;18549;42.286;22.688;2023-05-07T02:01:21;95841.47;;;16.27
32039;BMP280;18549;42.286;22.688;2023-05-07T02:03:49;95836.59;;;16.26
32039;BMP280;18549;42.286;22.688;2023-05-07T02:06:16;95833.16;;;16.27
32039;BMP280;18549;42.286;22.688;2023-05-07T02:08:49;95834.22;;;16.24
32039;BMP280;18549;42.286;22.688;2023-05-07T02:11:17;95834.09;;;16.26
32039;BMP280;18549;42.286;22.688;2023-05-07T02:13:43;95832.37;;;16.26
32039;BMP280;18549;42.286;22.688;2023-05-07T02:16:12;95832.50;;;16.25
32039;BMP280;18549;42.286;22.688;2023-05-07T02:18:40;95828.69;;;16.21
32039;BMP280;18549;42.286;22.688;2023-05-07T02:21:07;95830.25;;;16.22
32039;BMP280;18549;42.286;22.688;2023-05-07T02:23:34;95828.69;;;16.21
32039;BMP280;18549;42.286;22.688;2023-05-07T02:26:01;95830.50;;;16.19
32039;BMP280;18549;42.286;22.688;2023-05-07T02:28:29;95825.63;;;16.17
32039;BMP280;18549;42.286;22.688;2023-05-07T02:30:56;95835.06;;;16.14
32039;BMP280;18549;42.286;22.688;2023-05-07T02:33:25;95829.28;;;16.14
32039;BMP280;18549;42.286;22.688;2023-05-07T02:35:52;95827.69;;;16.13
32039;BMP280;18549;42.286;22.688;2023-05-07T02:38:20;95829.38;;;16.12
32039;BMP280;18549;42.286;22.688;2023-05-07T02:40:47;95827.25;;;16.08
32039;BMP280;18549;42.286;22.688;2023-05-07T02:43:16;95823.97;;;16.07
32039;BMP280;18549;42.286;22.688;2023-05-07T02:45:45;95825.69;;;16.07
32039;BMP280;18549;42.286;22.688;2023-05-07T02:48:12;95829.34;;;16.03
32039;BMP280;18549;42.286;22.688;2023-05-07T02:50:41;95825.25;;;16.02
32039;BMP280;18549;42.286;22.688;2023-05-07T02:53:14;95824.81;;;15.97
32039;BMP280;18549;42.286;22.688;2023-05-07T02:55:42;95823.38;;;15.94
32039;BMP280;18549;42.286;22.688;2023-05-07T02:58:09;95818.38;;;15.94
32039;BMP280;18549;42.286;22.688;2023-05-07T03:00:38;95829.31;;;15.93
32039;BMP280;18549;42.286;22.688;2023-05-07T03:03:08;95826.91;;;15.92
32039;BMP280;18549;42.286;22.688;2023-05-07T03:05:36;95827.69;;;15.92
32039;BMP280;18549;42.286;22.688;2023-05-07T03:08:05;95821.91;;;15.92
32039;BMP280;18549;42.286;22.688;2023-05-07T03:10:33;95823.63;;;15.91
32039;BMP280;18549;42.286;22.688;2023-05-07T03:13:00;95828.75;;;15.90
32039;BMP280;18549;42.286;22.688;2023-05-07T03:15:28;95823.75;;;15.90
32039;BMP280;18549;42.286;22.688;2023-05-07T03:17:55;95832.94;;;15.89
32039;BMP280;18549;42.286;22.688;2023-05-07T03:20:22;95838.19;;;15.86
32039;BMP280;18549;42.286;22.688;2023-05-07T03:22:49;95842.34;;;15.77
32039;BMP280;18549;42.286;22.688;2023-05-07T03:25:17;95842.16;;;15.69
32039;BMP280;18549;42.286;22.688;2023-05-07T03:27:44;95841.13;;;15.71
32039;BMP280;18549;42.286;22.688;2023-05-07T03:30:12;95842.94;;;15.69
32039;BMP280;18549;42.286;22.688;2023-05-07T03:32:41;95847.41;;;15.66
32039;BMP280;18549;42.286;22.688;2023-05-07T03:35:08;95850.69;;;15.66
32039;BMP280;18549;42.286;22.688;2023-05-07T03:37:35;95850.56;;;15.68
32039;BMP280;18549;42.286;22.688;2023-05-07T03:40:03;95849.91;;;15.66
32039;BMP280;18549;42.286;22.688;2023-05-07T03:42:32;95855.81;;;15.65
32039;BMP280;18549;42.286;22.688;2023-05-07T03:44:59;95851.16;;;15.60
32039;BMP280;18549;42.286;22.688;2023-05-07T03:47:26;95856.72;;;15.64
32039;BMP280;18549;42.286;22.688;2023-05-07T03:49:53;95865.94;;;15.63
32039;BMP280;18549;42.286;22.688;2023-05-07T03:52:20;95865.13;;;15.63
32039;BMP280;18549;42.286;22.688;2023-05-07T03:54:51;95868.56;;;15.62
32039;BMP280;18549;42.286;22.688;2023-05-07T03:57:18;95861.16;;;15.60
32039;BMP280;18549;42.286;22.688;2023-05-07T03:59:47;95847.22;;;15.58
32039;BMP280;18549;42.286;22.688;2023-05-07T04:02:14;95871.84;;;15.62
32039;BMP280;18549;42.286;22.688;2023-05-07T04:04:41;95847.78;;;15.61
32039;BMP280;18549;42.286;22.688;2023-05-07T04:07:08;95865.38;;;15.60
32039;BMP280;18549;42.286;22.688;2023-05-07T04:09:36;95870.13;;;15.63
32039;BMP280;18549;42.286;22.688;2023-05-07T04:12:04;95875.13;;;15.63
32039;BMP280;18549;42.286;22.688;2023-05-07T04:14:31;95870.37;;;15.60
32039;BMP280;18549;42.286;22.688;2023-05-07T04:17:00;95880.94;;;15.63
32039;BMP280;18549;42.286;22.688;2023-05-07T04:19:28;95881.72;;;15.64
32039;BMP280;18549;42.286;22.688;2023-05-07T04:21:55;95888.28;;;15.65
32039;BMP280;18549;42.286;22.688;2023-05-07T04:24:23;95888.84;;;15.68
32039;BMP280;18549;42.286;22.688;2023-05-07T04:26:50;95892.13;;;15.69
32039;BMP280;18549;42.286;22.688;2023-05-07T04:29:18;95893.03;;;15.68
32039;BMP280;18549;42.286;22.688;2023-05-07T04:31:45;95903.03;;;15.68
32039;BMP280;18549;42.286;22.688;2023-05-07T04:34:13;95906.22;;;15.70
32039;BMP280;18549;42.286;22.688;2023-05-07T04:36:41;95906.00;;;15.73
32039;BMP280;18549;42.286;22.688;2023-05-07T04:39:09;95905.41;;;15.69
32039;BMP280;18549;42.286;22.688;2023-05-07T04:41:36;95907.81;;;15.71
32039;BMP280;18549;42.286;22.688;2023-05-07T04:44:03;95913.84;;;15.68
32039;BMP280;18549;42.286;22.688;2023-05-07T04:46:31;95907.03;;;15.70
32039;BMP280;18549;42.286;22.688;2023-05-07T04:48:59;95904.38;;;15.72
32039;BMP280;18549;42.286;22.688;2023-05-07T04:51:28;95910.41;;;15.69
32039;BMP280;18549;42.286;22.688;2023-05-07T04:53:54;95937.81;;;15.71
32039;BMP280;18549;42.286;22.688;2023-05-07T04:56:21;95915.97;;;15.73
32039;BMP280;18549;42.286;22.688;2023-05-07T04:58:49;95918.13;;;15.77
32039;BMP280;18549;42.286;22.688;2023-05-07T05:01:16;95935.72;;;15.76
32039;BMP280;18549;42.286;22.688;2023-05-07T05:03:43;95921.53;;;15.76
32039;BMP280;18549;42.286;22.688;2023-05-07T05:06:11;95919.59;;;15.80
32039;BMP280;18549;42.286;22.688;2023-05-07T05:08:40;95921.16;;;15.81
32039;BMP280;18549;42.286;22.688;2023-05-07T05:11:07;95917.44;;;15.75
32039;BMP280;18549;42.286;22.688;2023-05-07T05:13:34;95912.03;;;15.70
32039;BMP280;18549;42.286;22.688;2023-05-07T05:16:01;95924.63;;;15.69
32039;BMP280;18549;42.286;22.688;2023-05-07T05:18:30;95924.41;;;15.61
32039;BMP280;18549;42.286;22.688;2023-05-07T05:20:56;95925.44;;;15.58
32039;BMP280;18549;42.286;22.688;2023-05-07T05:23:27;95928.75;;;15.59
32039;BMP280;18549;42.286;22.688;2023-05-07T05:25:57;95923.28;;;15.65
32039;BMP280;18549;42.286;22.688;2023-05-07T05:28:24;95919.06;;;15.65
32039;BMP280;18549;42.286;22.688;2023-05-07T05:30:51;95922.13;;;15.69
32039;BMP280;18549;42.286;22.688;2023-05-07T05:33:20;95923.47;;;15.73
32039;BMP280;18549;42.286;22.688;2023-05-07T05:35:49;95911.62;;;15.75
32039;BMP280;18549;42.286;22.688;2023-05-07T05:38:16;95914.81;;;15.77
32039;BMP280;18549;42.286;22.688;2023-05-07T05:40:43;95917.97;;;15.79
32039;BMP280;18549;42.286;22.688;2023-05-07T05:43:13;95925.00;;;15.84
32039;BMP280;18549;42.286;22.688;2023-05-07T05:45:40;95915.00;;;15.84
32039;BMP280;18549;42.286;22.688;2023-05-07T05:48:09;95914.75;;;15.87
32039;BMP280;18549;42.286;22.688;2023-05-07T05:50:36;95920.56;;;15.88
32039;BMP280;18549;42.286;22.688;2023-05-07T05:53:03;95924.16;;;15.95
32039;BMP280;18549;42.286;22.688;2023-05-07T05:55:32;95921.91;;;15.92
32039;BMP280;18549;42.286;22.688;2023-05-07T05:57:59;95923.78;;;15.99
32039;BMP280;18549;42.286;22.688;2023-05-07T06:00:28;95926.28;;;15.99
32039;BMP280;18549;42.286;22.688;2023-05-07T06:02:55;95923.56;;;16.02
32039;BMP280;18549;42.286;22.688;2023-05-07T06:05:22;95914.00;;;16.07
32039;BMP280;18549;42.286;22.688;2023-05-07T06:07:50;95922.38;;;16.06
32039;BMP280;18549;42.286;22.688;2023-05-07T06:10:17;95926.50;;;16.07
32039;BMP280;18549;42.286;22.688;2023-05-07T06:12:44;95925.03;;;16.05
32039;BMP280;18549;42.286;22.688;2023-05-07T06:15:11;95924.78;;;16.08
32039;BMP280;18549;42.286;22.688;2023-05-07T06:17:39;95923.22;;;16.07
32039;BMP280;18549;42.286;22.688;2023-05-07T06:20:07;95921.34;;;16.09
32039;BMP280;18549;42.286;22.688;2023-05-07T06:22:34;95918.47;;;16.13
32039;BMP280;18549;42.286;22.688;2023-05-07T06:25:02;95916.25;;;16.10
32039;BMP280;18549;42.286;22.688;2023-05-07T06:27:29;95916.81;;;16.14
32039;BMP280;18549;42.286;22.688;2023-05-07T06:29:57;95914.06;;;16.17
32039;BMP280;18549;42.286;22.688;2023-05-07T06:32:24;95913.56;;;16.22
32039;BMP280;18549;42.286;22.688;2023-05-07T06:34:53;95909.38;;;16.23
32039;BMP280;18549;42.286;22.688;2023-05-07T06:37:21;95908.75;;;16.30
32039;BMP280;18549;42.286;22.688;2023-05-07T06:39:50;95898.38;;;16.35
32039;BMP280;18549;42.286;22.688;2023-05-07T06:42:17;95892.44;;;16.36
32039;BMP280;18549;42.286;22.688;2023-05-07T06:44:44;95884.47;;;16.42
32039;BMP280;18549;42.286;22.688;2023-05-07T06:47:11;95885.00;;;16.45
32039;BMP280;18549;42.286;22.688;2023-05-07T06:49:38;95874.06;;;16.46
32039;BMP280;18549;42.286;22.688;2023-05-07T06:52:06;95881.22;;;16.51
32039;BMP280;18549;42.286;22.688;2023-05-07T06:54:33;95877.13;;;16.59
32039;BMP280;18549;42.286;22.688;2023-05-07T06:57:00;95883.09;;;16.67
32039;BMP280;18549;42.286;22.688;2023-05-07T06:59:27;95886.44;;;16.77
32039;BMP280;18549;42.286;22.688;2023-05-07T07:01:54;95887.34;;;16.76
32039;BMP280;18549;42.286;22.688;2023-05-07T07:04:21;95876.97;;;16.81
32039;BMP280;18549;42.286;22.688;2023-05-07T07:06:49;95875.28;;;16.90
32039;BMP280;18549;42.286;22.688;2023-05-07T07:09:20;95882.41;;;16.95
32039;BMP280;18549;42.286;22.688;2023-05-07T07:11:47;95872.78;;;17.00
32039;BMP280;18549;42.286;22.688;2023-05-07T07:14:14;95881.62;;;17.04
32039;BMP280;18549;42.286;22.688;2023-05-07T07:16:41;95882.56;;;17.03
32039;BMP280;18549;42.286;22.688;2023-05-07T07:19:08;95879.78;;;17.06
32039;BMP280;18549;42.286;22.688;2023-05-07T07:21:35;95873.47;;;17.11
32039;BMP280;18549;42.286;22.688;2023-05-07T07:24:03;95870.28;;;17.00
32039;BMP280;18549;42.286;22.688;2023-05-07T07:26:35;95872.22;;;17.17
32039;BMP280;18549;42.286;22.688;2023-05-07T07:29:02;95865.47;;;17.17
32039;BMP280;18549;42.286;22.688;2023-05-07T07:31:29;95869.16;;;17.22
32039;BMP280;18549;42.286;22.688;2023-05-07T07:33:58;95867.47;;;17.32
32039;BMP280;18549;42.286;22.688;2023-05-07T07:36:25;95858.25;;;17.42
32039;BMP280;18549;42.286;22.688;2023-05-07T07:38:53;95861.41;;;17.53
32039;BMP280;18549;42.286;22.688;2023-05-07T07:41:20;95863.78;;;17.64
32039;BMP280;18549;42.286;22.688;2023-05-07T07:43:49;95870.37;;;17.75
32039;BMP280;18549;42.286;22.688;2023-05-07T07:46:16;95869.56;;;17.83
32039;BMP280;18549;42.286;22.688;2023-05-07T07:48:43;95872.47;;;17.88
32039;BMP280;18549;42.286;22.688;2023-05-07T07:51:10;95870.09;;;17.96
32039;BMP280;18549;42.286;22.688;2023-05-07T07:53:37;95865.88;;;18.06
32039;BMP280;18549;42.286;22.688;2023-05-07T07:56:05;95863.47;;;18.14
32039;BMP280;18549;42.286;22.688;2023-05-07T07:58:33;95859.22;;;18.24
32039;BMP280;18549;42.286;22.688;2023-05-07T08:01:03;95860.91;;;18.33
32039;BMP280;18549;42.286;22.688;2023-05-07T08:03:30;95856.00;;;18.41
32039;BMP280;18549;42.286;22.688;2023-05-07T08:05:57;95858.88;;;18.46
32039;BMP280;18549;42.286;22.688;2023-05-07T08:08:24;95859.50;;;18.57
32039;BMP280;18549;42.286;22.688;2023-05-07T08:10:51;95854.00;;;18.71
32039;BMP280;18549;42.286;22.688;2023-05-07T08:13:18;95850.00;;;18.78
32039;BMP280;18549;42.286;22.688;2023-05-07T08:15:45;95862.69;;;18.85
32039;BMP280;18549;42.286;22.688;2023-05-07T08:18:13;95850.22;;;18.93
32039;BMP280;18549;42.286;22.688;2023-05-07T08:20:43;95848.72;;;19.00
32039;BMP280;18549;42.286;22.688;2023-05-07T08:23:14;95845.13;;;19.03
32039;BMP280;18549;42.286;22.688;2023-05-07T08:25:41;95844.59;;;19.09
32039;BMP280;18549;42.286;22.688;2023-05-07T08:28:09;95844.94;;;19.14
32039;BMP280;18549;42.286;22.688;2023-05-07T08:30:36;95841.94;;;19.27
32039;BMP280;18549;42.286;22.688;2023-05-07T08:33:03;95825.06;;;19.37
32039;BMP280;18549;42.286;22.688;2023-05-07T08:35:32;95832.09;;;19.51
32039;BMP280;18549;42.286;22.688;2023-05-07T08:37:59;95821.47;;;19.57
32039;BMP280;18549;42.286;22.688;2023-05-07T08:40:27;95822.81;;;19.69
32039;BMP280;18549;42.286;22.688;2023-05-07T08:42:56;95817.56;;;19.80
32039;BMP280;18549;42.286;22.688;2023-05-07T08:45:24;95812.88;;;19.84
32039;BMP280;18549;42.286;22.688;2023-05-07T08:47:58;95812.66;;;19.95
32039;BMP280;18549;42.286;22.688;2023-05-07T08:50:26;95814.28;;;20.04
32039;BMP280;18549;42.286;22.688;2023-05-07T08:52:55;95811.66;;;20.14
32039;BMP280;18549;42.286;22.688;2023-05-07T08:55:26;95801.97;;;20.26
32039;BMP280;18549;42.286;22.688;2023-05-07T08:57:57;95793.22;;;20.38
32039;BMP280;18549;42.286;22.688;2023-05-07T09:00:27;95792.00;;;20.50
32039;BMP280;18549;42.286;22.688;2023-05-07T09:02:55;95793.34;;;20.62
32039;BMP280;18549;42.286;22.688;2023-05-07T09:05:23;95788.50;;;20.68
32039;BMP280;18549;42.286;22.688;2023-05-07T09:07:49;95788.66;;;20.75
32039;BMP280;18549;42.286;22.688;2023-05-07T09:10:20;95792.63;;;20.77
32039;BMP280;18549;42.286;22.688;2023-05-07T09:12:48;95786.78;;;20.84
32039;BMP280;18549;42.286;22.688;2023-05-07T09:15:15;95790.41;;;20.82
32039;BMP280;18549;42.286;22.688;2023-05-07T09:17:43;95789.62;;;20.82
32039;BMP280;18549;42.286;22.688;2023-05-07T09:20:10;95783.50;;;20.84
32039;BMP280;18549;42.286;22.688;2023-05-07T09:22:39;95780.47;;;20.81
32039;BMP280;18549;42.286;22.688;2023-05-07T09:25:07;95773.09;;;20.87
32039;BMP280;18549;42.286;22.688;2023-05-07T09:27:36;95768.69;;;20.89
32039;BMP280;18549;42.286;22.688;2023-05-07T09:30:04;95771.22;;;20.89
32039;BMP280;18549;42.286;22.688;2023-05-07T09:32:34;95773.91;;;21.03
32039;BMP280;18549;42.286;22.688;2023-05-07T09:35:04;95766.38;;;21.11
32039;BMP280;18549;42.286;22.688;2023-05-07T09:37:32;95763.06;;;21.18
32039;BMP280;18549;42.286;22.688;2023-05-07T09:40:00;95764.66;;;21.27
32039;BMP280;18549;42.286;22.688;2023-05-07T09:42:28;95756.50;;;21.41
32039;BMP280;18549;42.286;22.688;2023-05-07T09:45:05;95747.97;;;21.42
32039;BMP280;18549;42.286;22.688;2023-05-07T09:47:34;95741.97;;;21.51
32039;BMP280;18549;42.286;22.688;2023-05-07T09:50:06;95730.94;;;21.60
32039;BMP280;18549;42.286;22.688;2023-05-07T09:52:38;95735.31;;;21.74
32039;BMP280;18549;42.286;22.688;2023-05-07T09:55:06;95729.34;;;21.67
32039;BMP280;18549;42.286;22.688;2023-05-07T09:57:34;95730.72;;;21.77
32039;BMP280;18549;42.286;22.688;2023-05-07T10:00:06;95727.72;;;21.82
32039;BMP280;18549;42.286;22.688;2023-05-07T10:02:36;95731.81;;;21.90
32039;BMP280;18549;42.286;22.688;2023-05-07T10:05:05;95724.69;;;22.02
32039;BMP280;18549;42.286;22.688;2023-05-07T10:07:33;95725.16;;;21.97
32039;BMP280;18549;42.286;22.688;2023-05-07T10:10:01;95715.69;;;22.07
32039;BMP280;18549;42.286;22.688;2023-05-07T10:12:30;95721.09;;;21.96
32039;BMP280;18549;42.286;22.688;2023-05-07T10:15:05;95718.50;;;22.04
32039;BMP280;18549;42.286;22.688;2023-05-07T10:17:35;95719.47;;;22.19
32039;BMP280;18549;42.286;22.688;2023-05-07T10:20:02;95711.22;;;22.25
32039;BMP280;18549;42.286;22.688;2023-05-07T10:22:30;95713.88;;;22.31
32039;BMP280;18549;42.286;22.688;2023-05-07T10:24:59;95714.78;;;22.38
32039;BMP280;18549;42.286;22.688;2023-05-07T10:27:30;95700.72;;;22.44
32039;BMP280;18549;42.286;22.688;2023-05-07T10:30:11;95699.41;;;22.48
32039;BMP280;18549;42.286;22.688;2023-05-07T10:32:45;95697.03;;;22.54
32039;BMP280;18549;42.286;22.688;2023-05-07T10:35:16;95694.78;;;22.59
32039;BMP280;18549;42.286;22.688;2023-05-07T10:37:44;95692.09;;;22.60
32039;BMP280;18549;42.286;22.688;2023-05-07T10:40:12;95689.22;;;22.63
32039;BMP280;18549;42.286;22.688;2023-05-07T10:42:53;95692.38;;;22.65
32039;BMP280;18549;42.286;22.688;2023-05-07T10:45:24;95688.22;;;22.72
32039;BMP280;18549;42.286;22.688;2023-05-07T10:48:17;95680.50;;;22.74
32039;BMP280;18549;42.286;22.688;2023-05-07T10:50:45;95662.25;;;22.86
32039;BMP280;18549;42.286;22.688;2023-05-07T10:53:24;95658.56;;;22.96
32039;BMP280;18549;42.286;22.688;2023-05-07T10:56:24;95665.53;;;22.94
32039;BMP280;18549;42.286;22.688;2023-05-07T10:58:54;95668.34;;;23.14
32039;BMP280;18549;42.286;22.688;2023-05-07T11:01:52;95659.75;;;23.22
32039;BMP280;18549;42.286;22.688;2023-05-07T11:04:20;95661.16;;;23.39
32039;BMP280;18549;42.286;22.688;2023-05-07T11:10:03;95658.19;;;23.58
32039;BMP280;18549;42.286;22.688;2023-05-07T11:12:53;95663.59;;;23.69
32039;BMP280;18549;42.286;22.688;2023-05-07T11:15:44;95660.25;;;23.69
32039;BMP280;18549;42.286;22.688;2023-05-07T11:18:13;95668.41;;;23.79
32039;BMP280;18549;42.286;22.688;2023-05-07T11:20:56;95659.03;;;23.93
32039;BMP280;18549;42.286;22.688;2023-05-07T11:26:45;95662.00;;;24.11
32039;BMP280;18549;42.286;22.688;2023-05-07T11:29:13;95650.84;;;24.06
32039;BMP280;18549;42.286;22.688;2023-05-07T11:31:42;95640.22;;;24.17
32039;BMP280;18549;42.286;22.688;2023-05-07T11:34:10;95645.41;;;24.23
32039;BMP280;18549;42.286;22.688;2023-05-07T11:36:43;95641.63;;;24.33
32039;BMP280;18549;42.286;22.688;2023-05-07T11:39:24;95645.44;;;24.44
32039;BMP280;18549;42.286;22.688;2023-05-07T11:41:52;95645.44;;;24.44
32039;BMP280;18549;42.286;22.688;2023-05-07T11:44:19;95650.63;;;24.36
32039;BMP280;18549;42.286;22.688;2023-05-07T11:46:46;95644.81;;;24.42
32039;BMP280;18549;42.286;22.688;2023-05-07T11:49:13;95643.16;;;24.49
32039;BMP280;18549;42.286;22.688;2023-05-07T11:51:43;95643.16;;;24.49
32039;BMP280;18549;42.286;22.688;2023-05-07T11:54:15;95645.62;;;24.42
32039;BMP280;18549;42.286;22.688;2023-05-07T11:56:45;95632.66;;;24.52
32039;BMP280;18549;42.286;22.688;2023-05-07T11:59:18;95629.72;;;24.69
32039;BMP280;18549;42.286;22.688;2023-05-07T12:01:46;95631.66;;;24.87
32039;BMP280;18549;42.286;22.688;2023-05-07T12:04:19;95618.63;;;24.90
32039;BMP280;18549;42.286;22.688;2023-05-07T12:06:48;95624.59;;;25.04
32039;BMP280;18549;42.286;22.688;2023-05-07T12:09:16;95620.72;;;25.08
32039;BMP280;18549;42.286;22.688;2023-05-07T12:11:46;95615.97;;;24.98
32039;BMP280;18549;42.286;22.688;2023-05-07T12:14:13;95611.22;;;24.89
32039;BMP280;18549;42.286;22.688;2023-05-07T12:16:41;95610.16;;;24.63
32039;BMP280;18549;42.286;22.688;2023-05-07T12:19:09;95611.56;;;24.45
32039;BMP280;18549;42.286;22.688;2023-05-07T12:21:38;95619.53;;;24.27
32039;BMP280;18549;42.286;22.688;2023-05-07T12:24:10;95611.25;;;24.33
32039;BMP280;18549;42.286;22.688;2023-05-07T12:26:39;95611.91;;;24.42
32039;BMP280;18549;42.286;22.688;2023-05-07T12:29:07;95606.44;;;24.59
32039;BMP280;18549;42.286;22.688;2023-05-07T12:31:34;95601.72;;;24.77
32039;BMP280;18549;42.286;22.688;2023-05-07T12:34:02;95595.84;;;24.97
32039;BMP280;18549;42.286;22.688;2023-05-07T12:36:36;95586.41;;;25.12
32039;BMP280;18549;42.286;22.688;2023-05-07T12:39:04;95585.75;;;25.30
32039;BMP280;18549;42.286;22.688;2023-05-07T12:41:36;95586.25;;;25.47
32039;BMP280;18549;42.286;22.688;2023-05-07T12:44:04;95586.31;;;25.53
32039;BMP280;18549;42.286;22.688;2023-05-07T12:46:31;95576.84;;;25.41
32039;BMP280;18549;42.286;22.688;2023-05-07T12:48:59;95575.16;;;25.20
32039;BMP280;18549;42.286;22.688;2023-05-07T12:51:27;95571.91;;;24.99
32039;BMP280;18549;42.286;22.688;2023-05-07T12:53:56;95570.91;;;25.00
32039;BMP280;18549;42.286;22.688;2023-05-07T12:56:24;95565.19;;;24.92
32039;BMP280;18549;42.286;22.688;2023-05-07T12:58:57;95568.00;;;24.83
32039;BMP280;18549;42.286;22.688;2023-05-07T13:01:29;95570.50;;;24.76
32039;BMP280;18549;42.286;22.688;2023-05-07T13:04:00;95562.66;;;24.71
32039;BMP280;18549;42.286;22.688;2023-05-07T13:06:28;95561.22;;;24.62
32039;BMP280;18549;42.286;22.688;2023-05-07T13:08:55;95560.75;;;24.52
32039;BMP280;18549;42.286;22.688;2023-05-07T13:11:23;95554.47;;;24.49
32039;BMP280;18549;42.286;22.688;2023-05-07T13:13:52;95549.53;;;24.41
32039;BMP280;18549;42.286;22.688;2023-05-07T13:16:19;95549.31;;;24.36
32039;BMP280;18549;42.286;22.688;2023-05-07T13:18:46;95537.78;;;24.33
32039;BMP280;18549;42.286;22.688;2023-05-07T13:21:14;95536.41;;;24.31
32039;BMP280;18549;42.286;22.688;2023-05-07T13:23:41;95536.94;;;24.26
32039;BMP280;18549;42.286;22.688;2023-05-07T13:26:09;95540.03;;;24.28
32039;BMP280;18549;42.286;22.688;2023-05-07T13:28:36;95546.69;;;24.29
32039;BMP280;18549;42.286;22.688;2023-05-07T13:31:05;95551.59;;;24.31
32039;BMP280;18549;42.286;22.688;2023-05-07T13:33:33;95544.34;;;24.28
32039;BMP280;18549;42.286;22.688;2023-05-07T13:36:02;95544.34;;;24.28
32039;BMP280;18549;42.286;22.688;2023-05-07T13:38:31;95546.53;;;24.17
32039;BMP280;18549;42.286;22.688;2023-05-07T13:40:58;95550.22;;;24.14
32039;BMP280;18549;42.286;22.688;2023-05-07T13:43:28;95558.53;;;24.08
32039;BMP280;18549;42.286;22.688;2023-05-07T13:45:55;95556.94;;;24.07
32039;BMP280;18549;42.286;22.688;2023-05-07T13:48:24;95561.00;;;24.02
32039;BMP280;18549;42.286;22.688;2023-05-07T13:50:51;95567.72;;;23.95
32039;BMP280;18549;42.286;22.688;2023-05-07T13:53:18;95568.72;;;23.80
32039;BMP280;18549;42.286;22.688;2023-05-07T13:55:45;95569.25;;;23.75
32039;BMP280;18549;42.286;22.688;2023-05-07T13:58:12;95572.63;;;23.82
32039;BMP280;18549;42.286;22.688;2023-05-07T14:00:41;95569.50;;;23.80
32039;BMP280;18549;42.286;22.688;2023-05-07T14:03:08;95588.09;;;23.73
32039;BMP280;18549;42.286;22.688;2023-05-07T14:05:37;95590.78;;;23.71
32039;BMP280;18549;42.286;22.688;2023-05-07T14:08:04;95571.16;;;23.87
32039;BMP280;18549;42.286;22.688;2023-05-07T14:10:34;95570.06;;;23.96